Latest Weather Observations for Bankstown

IDN60801

Issued at 3:42 pm EST Wednesday 20 June 2018 (issued every 10 minutes, with the page automatically refreshed every 10 minutes)

About weather observations | Map of weather stations | Latest weather observations for NSW | Other Formats
Station Details ID: 066137 Name: BANKSTOWN AIRPORT AWS Lat: -33.92 Lon: 150.99 Height: 6.5 m
Data from the previous 72 hours. | See also: Recent months at Bankstown
Date/Time
EST
Temp
°C
App
Temp
°C
Dew
Point
°C
Rel
Hum
%
Delta-T
°C
Wind Press
QNH
hPa
Press
MSL
hPa
Rain since
9am
mm
Dir  Spd
km/h
Gust
km/h
Spd
kts
Gust
kts
20/03:30pm 16.3 11.7 8.3 59 4.0 SSE 22 30 12 16 1026.6 1026.6 0.2
20/03:00pm 16.2 12.0 8.4 60 3.9 SSE 20 28 11 15 1026.4 1026.4 0.2
20/02:30pm 16.9 12.0 8.6 58 4.3 SSE 24 32 13 17 1026.3 1026.3 0.2
20/02:00pm 17.7 13.1 8.3 54 4.8 SSE 22 30 12 16 1026.2 1026.2 0.0
20/01:30pm 17.0 12.8 8.2 56 4.5 SSE 20 28 11 15 1026.3 1026.3 0.0
20/01:00pm 17.3 13.6 9.5 60 4.1 S 19 26 10 14 1026.5 1026.5 0.0
20/12:30pm 15.4 13.9 10.4 72 2.6 S 9 15 5 8 1026.9 1026.9 0.0
20/12:00pm 15.9 13.0 9.6 66 3.3 SSE 15 24 8 13 1027.2 1027.2 0.0
20/11:30am 16.0 12.6 9.2 64 3.5 S 17 30 9 16 1027.5 1027.5 0.0
20/11:00am 15.6 13.2 9.9 69 3.0 SW 13 19 7 10 1027.8 1027.8 0.0
20/10:30am 15.4 12.6 10.0 70 2.8 SW 15 19 8 10 1027.9 1027.9 0.0
20/10:00am 14.6 12.3 10.6 77 2.1 SW 13 19 7 10 1028.1 1028.1 0.0
20/09:30am 13.1 10.5 9.5 79 1.8 SW 13 20 7 11 1028.0 1028.0 0.0
20/09:00am 12.3 10.2 9.9 85 1.2 SW 11 15 6 8 1028.0 1028.0 11.0
20/08:30am 10.5 9.6 9.1 91 0.7 WSW 4 7 2 4 1027.8 1027.8 11.0
20/08:00am 9.5 8.8 8.6 94 0.4 WSW 2 7 1 4 1027.8 1027.8 11.0
20/07:30am 8.8 7.0 8.0 95 0.4 WSW 7 9 4 5 1027.8 1027.8 11.0
20/07:00am 7.7 5.6 6.6 93 0.5 W 7 7 4 4 1027.6 1027.6 11.0
20/06:30am 8.8 8.3 7.7 93 0.5 CALM 0 0 0 0 1027.4 1027.4 11.0
20/06:00am 9.4 7.9 8.3 93 0.5 SSW 6 9 3 5 1027.1 1027.1 11.0
20/05:30am 9.8 9.5 8.6 92 0.6 CALM 0 7 0 4 1026.9 1026.9 11.0
20/05:00am 10.1 9.5 8.9 92 0.6 SSW 2 6 1 3 1027.0 1027.0 11.0
20/04:30am 10.8 9.4 9.6 92 0.6 SSW 7 9 4 5 1027.0 1027.0 11.0
20/04:00am 11.2 9.0 9.5 89 0.8 SSW 11 17 6 9 1026.8 1026.8 11.0
20/03:30am 11.4 10.1 9.8 90 0.8 WSW 7 13 4 7 1026.5 1026.5 10.8
20/03:00am 11.3 8.9 9.9 91 0.7 SW 13 20 7 11 1026.6 1026.6 10.4
20/02:30am 11.3 7.5 9.9 91 0.7 SW 20 28 11 15 1026.1 1026.1 9.8
20/02:00am 11.2 7.9 9.5 89 0.8 SW 17 24 9 13 1026.0 1026.0 9.8
20/01:30am 11.2 8.0 9.8 91 0.7 SW 17 24 9 13 1025.7 1025.7 9.8
20/01:00am 11.2 8.7 9.8 91 0.7 SW 13 19 7 10 1025.3 1025.3 9.8
20/12:30am 11.0 8.4 9.4 90 0.8 SW 13 17 7 9 1025.2 1025.2 9.8
20/12:00am 10.7 8.0 9.1 90 0.8 WSW 13 15 7 8 1025.3 1025.3 9.4
 
Date/Time
EST
Temp
°C
App
Temp
°C
Dew
Point
°C
Rel
Hum
%
Delta-T
°C
Wind Press
QNH
hPa
Press
MSL
hPa
Rain since
9am
mm
Dir  Spd
km/h
Gust
km/h
Spd
kts
Gust
kts
19/11:30pm 10.7 8.9 9.3 91 0.7 SW 9 13 5 7 1025.2 1025.2 9.0
19/11:00pm 10.7 8.4 9.1 90 0.8 SW 11 15 6 8 1025.2 1025.2 8.8
19/10:30pm 10.8 8.9 9.2 90 0.8 SW 9 13 5 7 1025.0 1025.0 8.8
19/10:00pm 11.2 9.2 10.0 92 0.6 SW 11 13 6 7 1025.3 1025.3 8.8
19/09:30pm 11.3 9.3 10.0 92 0.7 WSW 11 15 6 8 1025.4 1025.4 8.8
19/09:00pm 11.5 9.9 10.1 91 0.7 SW 9 15 5 8 1025.3 1025.3 8.0
19/08:30pm 11.6 9.2 10.2 91 0.7 SSW 13 17 7 9 1025.2 1025.2 8.0
19/08:00pm 11.8 9.4 10.2 90 0.8 SSW 13 17 7 9 1025.4 1025.4 8.0
19/07:30pm 11.8 9.4 9.9 88 1.0 SW 13 17 7 9 1025.4 1025.4 8.0
19/07:00pm 11.9 10.6 10.0 88 1.0 SW 7 9 4 5 1025.3 1025.3 7.4
19/06:30pm 12.4 9.9 9.8 84 1.3 ESE 13 19 7 10 1025.0 1025.0 6.8
19/06:00pm 13.1 9.9 8.4 73 2.3 S 15 24 8 13 1024.2 1024.2 5.6
19/05:30pm 13.2 8.6 8.3 72 2.4 SSW 22 33 12 18 1023.1 1023.1 5.6
19/05:00pm 13.8 9.2 8.2 69 2.8 SSW 22 35 12 19 1022.9 1022.9 5.6
19/04:30pm 14.1 9.2 8.3 68 2.9 SSW 24 37 13 20 1022.4 1022.4 5.6
19/04:00pm 14.8 8.7 8.3 65 3.3 SSW 30 37 16 20 1022.5 1022.5 5.6
19/03:30pm 14.6 10.9 9.4 71 2.7 SSW 19 28 10 15 1022.4 1022.4 5.6
19/03:00pm 14.3 10.4 9.5 73 2.5 SW 20 30 11 16 1022.2 1022.2 5.6
19/02:30pm 13.1 10.0 10.3 83 1.4 SW 17 24 9 13 1022.0 1022.0 5.6
19/02:00pm 12.2 9.0 9.9 86 1.2 SSW 17 30 9 16 1022.2 1022.2 5.6
19/01:30pm 11.0 7.2 8.9 87 1.0 S 19 26 10 14 1022.5 1022.5 5.6
19/01:29pm 11.0 7.2 8.9 87 1.0 S 19 26 10 14 1022.6 1022.6 5.6
19/01:16pm 11.0 5.4 8.9 87 1.0 SSE 28 46 15 25 1022.7 1022.7 5.4
19/01:07pm 11.8 7.9 9.4 85 1.2 S 20 39 11 21 1023.1 1023.1 4.2
19/01:00pm 12.6 9.2 9.2 80 1.7 SSW 17 24 9 13 1022.9 1022.9 2.2
19/12:30pm 12.5 8.1 8.8 78 1.8 SSW 22 33 12 18 1022.3 1022.3 2.2
19/12:00pm 13.0 10.0 10.5 85 1.3 S 17 33 9 18 1022.6 1022.6 2.0
19/11:30am 12.8 9.1 10.2 84 1.3 SSE 20 30 11 16 1022.3 1022.3 1.4
19/11:00am 14.7 10.0 9.3 70 2.8 SSW 24 39 13 21 1022.5 1022.5 0.0
19/10:30am 14.0 9.4 9.6 75 2.3 SSW 24 33 13 18 1022.4 1022.4 0.0
19/10:00am 12.6 9.3 9.4 81 1.6 SSW 17 24 9 13 1022.5 1022.5 0.0
19/09:30am 11.7 8.6 8.7 82 1.5 SW 15 22 8 12 1022.4 1022.4 0.0
19/09:00am 10.6 7.6 7.7 82 1.4 WSW 13 17 7 9 1021.9 1021.9 5.0
19/08:30am 10.0 7.4 7.8 86 1.1 WSW 11 17 6 9 1021.4 1021.4 5.0
19/08:00am 10.0 6.3 8.1 88 0.9 SW 17 26 9 14 1021.0 1021.0 5.0
19/07:30am 9.7 6.4 8.1 90 0.8 SW 15 20 8 11 1021.2 1021.2 4.8
19/07:00am 9.4 6.7 7.5 88 0.9 SW 11 15 6 8 1020.8 1020.8 3.8
19/06:30am 9.5 6.0 7.3 86 1.0 SW 15 20 8 11 1020.4 1020.4 3.2
19/06:00am 9.4 6.3 7.2 86 1.0 SW 13 17 7 9 1020.3 1020.3 2.6
19/05:30am 9.1 5.6 7.1 87 0.9 WSW 15 20 8 11 1019.7 1019.7 2.4
19/05:00am 9.3 5.3 6.7 84 1.2 SW 17 28 9 15 1019.9 1019.9 1.0
19/04:30am 9.5 5.4 6.0 79 1.6 SW 17 26 9 14 1019.8 1019.8 0.0
19/04:00am 10.3 5.9 4.9 69 2.4 SW 17 22 9 12 1020.0 1020.0 0.0
19/03:30am 10.6 5.7 4.3 65 2.8 SW 19 28 10 15 1019.7 1019.7 0.0
19/03:00am 10.9 6.4 4.1 63 3.0 SW 17 30 9 16 1019.7 1019.7 0.0
19/02:30am 10.8 6.2 3.8 62 3.1 SW 17 26 9 14 1019.8 1019.8 0.0
19/02:00am 10.6 6.7 3.6 62 3.1 WSW 13 19 7 10 1019.6 1019.6 0.0
19/01:30am 10.2 5.9 3.3 62 3.0 WSW 15 19 8 10 1019.7 1019.7 0.0
19/01:00am 10.3 5.6 3.1 61 3.1 SW 17 20 9 11 1019.7 1019.7 0.0
19/12:30am 9.9 6.4 3.6 65 2.7 SW 11 17 6 9 1020.0 1020.0 0.0
19/12:00am 10.3 6.9 4.2 66 2.7 SW 11 19 6 10 1020.1 1020.1 0.0
 
Date/Time
EST
Temp
°C
App
Temp
°C
Dew
Point
°C
Rel
Hum
%
Delta-T
°C
Wind Press
QNH
hPa
Press
MSL
hPa
Rain since
9am
mm
Dir  Spd
km/h
Gust
km/h
Spd
kts
Gust
kts
18/11:30pm 10.4 6.7 4.5 67 2.6 SW 13 20 7 11 1020.1 1020.1 0.0
18/11:00pm 11.0 7.5 5.3 68 2.6 WSW 13 20 7 11 1020.3 1020.3 0.0
18/10:30pm 11.3 7.9 6.0 70 2.5 WSW 13 20 7 11 1020.4 1020.4 0.0
18/10:00pm 11.1 8.1 6.0 71 2.4 SW 11 19 6 10 1020.5 1020.5 0.0
18/09:30pm 11.9 7.4 6.0 67 2.8 SW 19 26 10 14 1020.4 1020.4 0.0
18/09:00pm 12.0 8.6 6.1 67 2.8 WSW 13 19 7 10 1020.3 1020.3 0.0
18/08:30pm 12.3 8.4 5.2 62 3.3 WSW 15 20 8 11 1020.2 1020.2 0.0
18/08:00pm 12.7 8.4 5.1 60 3.5 SW 17 30 9 16 1020.2 1020.2 0.0
18/07:30pm 13.2 8.3 4.9 57 3.8 SSW 20 30 11 16 1020.0 1020.0 0.0
18/07:00pm 13.4 9.1 5.3 58 3.8 SSW 17 30 9 16 1019.7 1019.7 0.0
18/06:30pm 13.6 9.0 5.5 58 3.8 S 19 26 10 14 1019.3 1019.3 0.0
18/06:00pm 14.6 8.9 4.9 52 4.5 S 24 35 13 19 1018.8 1018.8 0.0
18/05:30pm 14.5 10.1 4.5 51 4.6 SSE 17 20 9 11 1018.4 1018.4 0.0
18/05:00pm 14.5 9.4 3.9 49 4.8 S 20 28 11 15 1017.9 1017.9 0.0
18/04:30pm 15.2 10.7 4.3 48 5.1 SSW 17 24 9 13 1017.5 1017.5 0.0
18/04:00pm 15.6 10.2 4.3 47 5.2 S 22 30 12 16 1017.3 1017.3 0.0
18/03:30pm 16.6 10.1 4.6 45 5.7 SSW 28 39 15 21 1017.0 1017.0 0.0
18/03:00pm 17.2 9.9 4.5 43 6.0 S 32 46 17 25 1016.8 1016.8 0.0
18/02:34pm 17.1 10.4 3.8 41 6.2 SSW 28 56 15 30 1016.5 1016.5 0.0
18/02:30pm 17.5 11.7 4.5 42 6.2 SSW 24 35 13 19 1016.5 1016.5 0.0
18/02:00pm 16.8 9.5 4.5 44 5.8 SSW 32 44 17 24 1016.3 1016.3 0.0
18/01:35pm 17.0 10.4 4.3 43 6.0 SSW 28 52 15 28 1016.3 1016.3 0.0
18/01:30pm 17.5 10.8 5.8 46 5.7 SSW 30 44 16 24 1016.3 1016.3 0.0
18/01:00pm 16.7 11.2 5.9 49 5.2 SSW 24 32 13 17 1016.5 1016.5 0.0
18/12:30pm 16.3 10.2 6.4 52 4.8 SSW 28 41 15 22 1016.5 1016.5 0.0
18/12:00pm 15.1 9.5 5.6 53 4.5 SSW 24 33 13 18 1016.8 1016.8 0.0
18/11:30am 14.1 9.4 5.2 55 4.2 SSW 19 30 10 16 1017.0 1017.0 0.0
18/11:00am 13.5 8.1 4.6 55 4.1 SW 22 32 12 17 1016.7 1016.7 0.0
18/10:30am 13.4 7.7 4.8 56 4.0 SSW 24 37 13 20 1016.8 1016.8 0.0
18/10:00am 12.7 5.7 4.2 56 3.8 WSW 30 44 16 24 1015.8 1015.8 0.0
18/09:30am 12.2 6.5 4.7 60 3.4 SW 24 41 13 22 1016.1 1016.1 0.0
18/09:00am 11.7 5.8 4.0 59 3.4 SW 24 33 13 18 1016.2 1016.2 0.0
18/08:30am 11.1 6.7 4.6 64 2.9 SW 17 30 9 16 1015.8 1015.8 0.0
18/08:00am 10.5 5.6 4.9 68 2.5 SW 20 28 11 15 1015.4 1015.4 0.0
18/07:30am 11.2 6.1 4.2 62 3.1 SW 20 33 11 18 1015.2 1015.2 0.0
18/07:00am 10.8 5.4 4.5 65 2.8 SW 22 33 12 18 1014.9 1014.9 0.0
18/06:30am 10.9 6.0 4.1 63 3.0 SW 19 28 10 15 1014.4 1014.4 0.0
18/06:00am 10.7 6.2 4.2 64 2.9 WSW 17 22 9 12 1014.1 1014.1 0.0
18/05:30am 10.5 6.8 4.2 65 2.8 SW 13 19 7 10 1013.8 1013.8 0.0
18/05:00am 10.3 5.4 4.0 65 2.8 SW 19 30 10 16 1013.8 1013.8 0.0
18/04:30am 10.6 6.1 4.1 64 2.9 SW 17 24 9 13 1013.8 1013.8 0.0
18/04:00am 10.8 5.9 4.0 63 3.0 WSW 19 28 10 15 1013.8 1013.8 0.0
18/03:30am 10.7 6.2 4.0 63 3.0 WSW 17 26 9 14 1013.4 1013.4 0.0
18/03:00am 10.7 6.2 4.0 63 3.0 WSW 17 32 9 17 1013.5 1013.5 0.0
18/02:30am 10.8 5.9 4.0 63 3.0 SW 19 28 10 15 1013.5 1013.5 0.0
18/02:00am 10.7 7.0 4.2 64 2.9 WSW 13 17 7 9 1013.5 1013.5 0.0
18/01:30am 9.9 6.8 3.6 65 2.7 W 9 11 5 6 1013.5 1013.5 0.0
18/01:00am 9.9 6.8 3.4 64 2.8 WNW 9 13 5 7 1013.4 1013.4 0.0
18/12:30am 10.0 6.4 3.1 62 3.0 NW 11 15 6 8 1013.2 1013.2 0.0
18/12:00am 10.0 6.0 3.1 62 3.0 NW 13 17 7 9 1013.0 1013.0 0.0
 
Date/Time
EST
Temp
°C
App
Temp
°C
Dew
Point
°C
Rel
Hum
%
Delta-T
°C
Wind Press
QNH
hPa
Press
MSL
hPa
Rain since
9am
mm
Dir  Spd
km/h
Gust
km/h
Spd
kts
Gust
kts
17/11:30pm 9.1 5.8 2.4 63 2.8 WNW 9 11 5 6 1013.0 1013.0 0.0
17/11:00pm 9.6 6.3 2.5 61 3.0 WNW 9 13 5 7 1013.1 1013.1 0.0
17/10:30pm 9.6 6.3 2.7 62 2.9 WNW 9 11 5 6 1013.0 1013.0 0.0
17/10:00pm 10.0 5.5 2.4 59 3.2 WNW 15 19 8 10 1013.1 1013.1 0.0
17/09:30pm 10.0 6.3 2.4 59 3.2 NW 11 15 6 8 1013.0 1013.0 0.0
17/09:00pm 10.3 6.1 1.9 56 3.5 W 13 17 7 9 1013.0 1013.0 0.0
17/08:30pm 10.7 6.6 2.3 56 3.6 WNW 13 17 7 9 1012.9 1012.9 0.0
17/08:00pm 11.3 6.4 2.3 54 3.9 WNW 17 22 9 12 1012.8 1012.8 0.0
17/07:30pm 11.3 6.1 2.3 54 3.9 WNW 19 24 10 13 1012.7 1012.7 0.0
17/07:00pm 10.7 6.9 2.0 55 3.7 WNW 11 20 6 11 1012.7 1012.7 0.0
17/06:30pm 11.0 6.8 1.8 53 3.9 NW 13 17 7 9 1012.6 1012.6 0.0
17/06:00pm 11.6 6.6 1.5 50 4.3 WNW 17 20 9 11 1012.3 1012.3 0.0
17/05:30pm 11.8 6.4 1.4 49 4.4 WNW 19 24 10 13 1011.7 1011.7 0.0
17/05:00pm 12.9 6.5 1.0 44 5.0 W 24 37 13 20 1011.5 1011.5 0.0
17/04:30pm 13.6 6.0 0.6 41 5.5 WSW 30 50 16 27 1011.3 1011.3 0.0
17/04:16pm 14.0 6.8 0.6 40 5.7 WSW 28 46 15 25 1011.2 1011.2 0.0
17/04:00pm 14.2 6.2 0.1 38 5.9 W 32 46 17 25 1011.1 1011.1 0.0

Other Formats:

Comma delimited format used in spreadsheet applications
http://www.bom.gov.au/fwo/IDN60801/IDN60801.94765.axf

JavaScript Object Notation format (JSON) in row-major order
http://www.bom.gov.au/fwo/IDN60801/IDN60801.94765.json